Airfield :
LOGIN :

Register | Disclaimer

   EN    FR    IT 

 










Legend :    VFR   Marginal VFR   IFR   Intensive IFR   Very Intensive IFR
Visi :
Ceiling :
>= 8 km
>= 3000ft
5 to 8 km
1000 to 3000 ft
1500m to 5 km
500 to 1000 ft
800 to 1500m
200 to 500 ft
< 800m
< 200 ft
Symbols :   Thunderstorms  Fog  Heavy snow  Heavy precipitations  Wind > 20 kt
SIGMETs :     Misc.  Thunderstorms  Icing  Turbulence  Mountain Waves  Volcanic Ashes






- Airport Elevation : 844 ft
- IATA code : OSR


LKMT - Ostrava-Mosnov

CURRENT METAR :
  • 200630Z 23014KT 9999 -SHRA NSC 16/06 Q1023 BECMG CAVOK

EXPIRED METARs :
  • 200600Z 23008KT CAVOK 17/08 Q1022 TEMPO SHRA
  • 200530Z 25009KT CAVOK 17/07 Q1022 NOSIG
  • 200500Z 23008KT CAVOK 16/06 Q1021 NOSIG
  • 200430Z 23008KT CAVOK 15/06 Q1021 NOSIG
  • 200400Z 24008KT CAVOK 13/05 Q1022 NOSIG
  • 200330Z 24008KT CAVOK 13/04 Q1022 NOSIG

TAF TAF LKMT
Valid from the 20 at 06:00 until the 21 at 12:00 UTC


200500Z 2006/2112 21009KT CAVOK
PROB30
TEMPO 2015/2023 23016G26KT 7000 SHRA SCT060CB
TEMPO 2023/2106 5000 SHRA SCT050CB
PROB30
TEMPO 2101/2105 29012G24KT 2500 TSRA SCT040CB
BECMG 2106/2109 27018KT
TEMPO 2109/2112 29024G34KT



MET'MAP, your aeronautical weather chart ! - Copyright ORBIFLY December 2007 - Disclaimer

ORBIFLY MET'MAP TEAM :

Programming & Development : Alexandra Zaïnal
Original concept : Baudouin d'Aumeries
Technical & hardware support : Manuel Goepfert
Assistance : Marc-Olivier Méhu

Contact : metmap@orbifly.com




SOURCES & CREDITS :

   NOAA